Time,TemperatureF,DewpointF,PressureIn,WindDirection,WindDirectionDegrees,WindSpeedMPH,WindSpeedGustMPH,Humidity,HourlyPrecipIn,Conditions,Clouds,dailyrainin,SoftwareType,DateUTC
2013-01-02 00:02:00,-5.0,-9.0,-100.00,SE,133,2.0,4.0,85,0.00,,,-99.99,,2013-01-02 07:02:00,
2013-01-02 00:12:00,-5.0,-8.0,-100.00,SE,141,3.0,4.0,87,0.00,,,-99.99,,2013-01-02 07:12:00,
2013-01-02 00:22:00,-5.0,-8.0,-100.00,SSE,152,3.0,4.0,86,0.00,,,-99.99,,2013-01-02 07:22:00,
2013-01-02 00:32:00,-5.0,-8.0,-100.00,SSE,152,3.0,4.0,86,0.00,,,-99.99,,2013-01-02 07:32:00,
2013-01-02 00:42:00,-3.0,-6.0,-100.00,SE,136,3.0,5.0,87,0.00,,,-99.99,,2013-01-02 07:42:00,
2013-01-02 00:52:00,-3.0,-6.0,-100.00,SE,136,3.0,5.0,87,0.00,,,-99.99,,2013-01-02 07:52:00,
2013-01-02 01:02:00,-3.0,-6.0,-100.00,SE,136,3.0,5.0,87,0.00,,,-99.99,,2013-01-02 08:02:00,
2013-01-02 01:11:00,-4.0,-7.0,-100.00,SE,143,2.0,3.0,85,0.00,,,-99.99,,2013-01-02 08:11:00,
2013-01-02 01:22:00,-1.0,-4.0,-100.00,WNW,284,0.0,2.0,88,0.00,,,-99.99,,2013-01-02 08:22:00,
2013-01-02 01:32:00,-1.0,-4.0,-100.00,WNW,284,0.0,2.0,88,0.00,,,-99.99,,2013-01-02 08:32:00,
2013-01-02 01:42:00,-2.0,-5.0,-100.00,South,181,1.0,1.0,87,0.00,,,-99.99,,2013-01-02 08:42:00,
2013-01-02 01:53:00,-2.0,-5.0,-100.00,South,181,1.0,1.0,88,0.00,,,-99.99,,2013-01-02 08:53:00,
2013-01-02 02:02:00,-2.0,-5.0,-100.00,South,181,1.0,1.0,88,0.00,,,-99.99,,2013-01-02 09:02:00,
2013-01-02 02:12:00,-2.0,-5.0,-100.00,WSW,246,1.0,2.0,88,0.00,,,-99.99,,2013-01-02 09:12:00,
2013-01-02 02:22:00,-4.0,-7.0,-100.00,SW,223,2.0,3.0,86,0.00,,,-99.99,,2013-01-02 09:22:00,
2013-01-02 02:32:00,-4.0,-7.0,-100.00,SW,223,2.0,3.0,86,0.00,,,-99.99,,2013-01-02 09:32:00,
2013-01-02 02:42:00,-5.0,-8.0,-100.00,SW,224,2.0,2.0,87,0.00,,,-99.99,,2013-01-02 09:42:00,
2013-01-02 02:52:00,-4.0,-7.0,-100.00,SW,224,1.0,1.0,87,0.00,,,-99.99,,2013-01-02 09:52:00,
2013-01-02 03:02:00,-4.0,-7.0,-100.00,SW,224,1.0,1.0,87,0.00,,,-99.99,,2013-01-02 10:02:00,
2013-01-02 03:12:00,-5.0,-8.0,-100.00,SSW,208,1.0,1.0,87,0.00,,,-99.99,,2013-01-02 10:12:00,
2013-01-02 03:22:00,-5.0,-8.0,-100.00,SW,219,0.0,0.0,86,0.00,,,-99.99,,2013-01-02 10:22:00,
2013-01-02 03:32:00,-5.0,-8.0,-100.00,SW,219,0.0,0.0,86,0.00,,,-99.99,,2013-01-02 10:32:00,
2013-01-02 03:42:00,-5.0,-8.0,-100.00,SSW,200,2.0,2.0,86,0.00,,,-99.99,,2013-01-02 10:42:00,
2013-01-02 03:52:00,-5.0,-8.0,-100.00,SSW,192,1.0,1.0,86,0.00,,,-99.99,,2013-01-02 10:52:00,
2013-01-02 04:02:00,-5.0,-8.0,-100.00,SSW,192,1.0,1.0,86,0.00,,,-99.99,,2013-01-02 11:02:00,
2013-01-02 04:11:00,-5.0,-8.0,-100.00,SW,217,1.0,2.0,86,0.00,,,-99.99,,2013-01-02 11:11:00,
2013-01-02 04:22:00,-5.0,-8.0,-100.00,SE,131,1.0,2.0,87,0.00,,,-99.99,,2013-01-02 11:22:00,
2013-01-02 04:32:00,-5.0,-8.0,-100.00,SE,131,1.0,2.0,87,0.00,,,-99.99,,2013-01-02 11:32:00,
2013-01-02 04:42:00,-6.0,-9.0,-100.00,ESE,104,0.0,1.0,86,0.00,,,-99.99,,2013-01-02 11:42:00,
2013-01-02 04:52:00,-7.0,-11.0,-100.00,SSE,147,1.0,1.0,84,0.00,,,-99.99,,2013-01-02 11:52:00,
2013-01-02 05:02:00,-7.0,-11.0,-100.00,SSE,147,1.0,1.0,84,0.00,,,-99.99,,2013-01-02 12:02:00,
2013-01-02 05:12:00,-8.0,-12.0,-100.00,South,178,0.0,1.0,85,0.00,,,-99.99,,2013-01-02 12:12:00,
2013-01-02 05:22:00,-8.0,-12.0,-100.00,South,178,0.0,1.0,85,0.00,,,-99.99,,2013-01-02 12:22:00,
2013-01-02 05:32:00,-8.0,-12.0,-100.00,South,178,0.0,1.0,85,0.00,,,-99.99,,2013-01-02 12:32:00,
2013-01-02 05:42:00,-8.0,-12.0,-100.00,ENE,76,2.0,3.0,84,0.00,,,-99.99,,2013-01-02 12:42:00,
2013-01-02 05:53:00,-4.0,-7.0,-100.00,ENE,62,2.0,3.0,88,0.00,,,-99.99,,2013-01-02 12:53:00,
2013-01-02 06:02:00,-4.0,-7.0,-100.00,ENE,62,2.0,3.0,88,0.00,,,-99.99,,2013-01-02 13:02:00,
2013-01-02 06:12:00,-4.0,-7.0,-100.00,NE,54,0.0,1.0,87,0.00,,,-99.99,,2013-01-02 13:12:00,
2013-01-02 06:22:00,-4.0,-7.0,-100.00,NNE,23,1.0,2.0,87,0.00,,,-99.99,,2013-01-02 13:22:00,
2013-01-02 06:32:00,-4.0,-7.0,-100.00,NNE,23,1.0,2.0,87,0.00,,,-99.99,,2013-01-02 13:32:00,
2013-01-02 06:42:00,-4.0,-7.0,-100.00,NE,42,1.0,2.0,87,0.00,,,-99.99,,2013-01-02 13:42:00,
2013-01-02 06:52:00,-4.0,-7.0,-100.00,SSE,154,1.0,2.0,87,0.00,,,-99.99,,2013-01-02 13:52:00,
2013-01-02 07:02:00,-4.0,-7.0,-100.00,SSE,154,1.0,2.0,87,0.00,,,-99.99,,2013-01-02 14:02:00,
2013-01-02 07:12:00,-3.0,-6.0,-100.00,SE,134,1.0,2.0,87,0.00,,,-99.99,,2013-01-02 14:12:00,
2013-01-02 07:22:00,-3.0,-6.0,-100.00,SSE,157,1.0,2.0,87,0.00,,,-99.99,,2013-01-02 14:22:00,
2013-01-02 07:32:00,-3.0,-6.0,-100.00,SSE,157,1.0,2.0,87,0.00,,,-99.99,,2013-01-02 14:32:00,
2013-01-02 07:42:00,-3.0,-6.0,-100.00,ESE,107,0.0,1.0,87,0.00,,,-99.99,,2013-01-02 14:42:00,
2013-01-02 07:53:00,-3.0,-6.0,-100.00,ESE,107,0.0,1.0,87,0.00,,,-99.99,,2013-01-02 14:53:00,
2013-01-02 08:02:00,-3.0,-6.0,-100.00,ESE,107,0.0,1.0,87,0.00,,,-99.99,,2013-01-02 15:02:00,
2013-01-02 08:12:00,-3.0,-6.0,-100.00,NNE,13,1.0,2.0,87,0.00,,,-99.99,,2013-01-02 15:12:00,
2013-01-02 08:22:00,-4.0,-7.0,-100.00,NNE,25,3.0,4.0,87,0.00,,,-99.99,,2013-01-02 15:22:00,
2013-01-02 08:33:00,-4.0,-7.0,-100.00,NNE,25,3.0,4.0,87,0.00,,,-99.99,,2013-01-02 15:33:00,
2013-01-02 08:43:00,-4.0,-7.0,-100.00,ENE,78,0.0,1.0,87,0.00,,,-99.99,,2013-01-02 15:43:00,
2013-01-02 08:53:00,-4.0,-7.0,-100.00,SSE,151,2.0,3.0,87,0.00,,,-99.99,,2013-01-02 15:53:00,
2013-01-02 09:02:00,-4.0,-7.0,-100.00,SSE,151,2.0,3.0,87,0.00,,,-99.99,,2013-01-02 16:02:00,
2013-01-02 09:12:00,-4.0,-7.0,-100.00,SSE,151,2.0,3.0,87,0.00,,,-99.99,,2013-01-02 16:12:00,
2013-01-02 09:22:00,-5.0,-8.0,-100.00,SSE,148,3.0,3.0,86,0.00,,,-99.99,,2013-01-02 16:22:00,
2013-01-02 09:32:00,-5.0,-8.0,-100.00,SSE,148,3.0,3.0,86,0.00,,,-99.99,,2013-01-02 16:32:00,
2013-01-02 09:43:00,-4.0,-7.0,-100.00,ESE,121,2.0,3.0,87,0.00,,,-99.99,,2013-01-02 16:43:00,
2013-01-02 09:53:00,-4.0,-7.0,-100.00,ESE,120,2.0,2.0,87,0.00,,,-99.99,,2013-01-02 16:53:00,
2013-01-02 10:02:00,-4.0,-7.0,-100.00,ESE,120,2.0,2.0,87,0.00,,,-99.99,,2013-01-02 17:02:00,
2013-01-02 10:12:00,-3.0,-6.0,-100.00,East,79,1.0,2.0,87,0.00,,,-99.99,,2013-01-02 17:12:00,
2013-01-02 10:22:00,-3.0,-6.0,-100.00,East,79,1.0,2.0,87,0.00,,,-99.99,,2013-01-02 17:22:00,
2013-01-02 10:33:00,-3.0,-6.0,-100.00,East,79,1.0,2.0,87,0.00,,,-99.99,,2013-01-02 17:33:00,
2013-01-02 10:42:00,-2.0,-5.0,-100.00,SE,136,2.0,3.0,88,0.00,,,-99.99,,2013-01-02 17:42:00,
2013-01-02 10:53:00,-2.0,-5.0,-100.00,SE,136,2.0,3.0,88,0.00,,,-99.99,,2013-01-02 17:53:00,
2013-01-02 11:02:00,-2.0,-5.0,-100.00,SE,136,2.0,3.0,88,0.00,,,-99.99,,2013-01-02 18:02:00,
2013-01-02 11:12:00,0.0,-1.0,-100.00,SSE,167,2.0,2.0,91,0.00,,,-99.99,,2013-01-02 18:12:00,
2013-01-02 11:22:00,0.0,-1.0,-100.00,SSE,167,2.0,2.0,91,0.00,,,-99.99,,2013-01-02 18:22:00,
2013-01-02 11:33:00,1.0,-1.0,-100.00,East,86,2.0,3.0,89,0.00,,,-99.99,,2013-01-02 18:33:00,
2013-01-02 11:42:00,1.0,-1.0,-100.00,East,86,2.0,3.0,89,0.00,,,-99.99,,2013-01-02 18:42:00,
2013-01-02 11:53:00,7.0,6.0,-100.00,SE,141,0.0,0.0,95,0.00,,,-99.99,,2013-01-02 18:53:00,
2013-01-02 12:02:00,7.0,6.0,-100.00,SE,141,0.0,0.0,95,0.00,,,-99.99,,2013-01-02 19:02:00,
2013-01-02 12:22:00,4.0,2.0,-100.00,SSW,195,1.0,2.0,91,0.00,,,-99.99,,2013-01-02 19:22:00,
2013-01-02 12:32:00,4.0,2.0,-100.00,SSW,195,1.0,2.0,91,0.00,,,-99.99,,2013-01-02 19:32:00,
2013-01-02 12:42:00,3.0,0.0,-100.00,SSW,200,2.0,2.0,89,0.00,,,-99.99,,2013-01-02 19:42:00,
2013-01-02 12:52:00,6.0,4.0,-100.00,SW,233,2.0,2.0,91,0.00,,,-99.99,,2013-01-02 19:52:00,
2013-01-02 13:02:00,6.0,4.0,-100.00,South,175,2.0,2.0,92,0.00,,,-99.99,,2013-01-02 20:02:00,
2013-01-02 13:12:00,6.0,4.0,-100.00,South,175,2.0,2.0,92,0.00,,,-99.99,,2013-01-02 20:12:00,
2013-01-02 13:22:00,5.0,3.0,-100.00,SSW,192,2.0,3.0,91,0.00,,,-99.99,,2013-01-02 20:22:00,
2013-01-02 13:32:00,5.0,3.0,-100.00,SSW,192,2.0,3.0,91,0.00,,,-99.99,,2013-01-02 20:32:00,
2013-01-02 13:42:00,5.0,3.0,-100.00,SSW,196,3.0,4.0,91,0.00,,,-99.99,,2013-01-02 20:42:00,
2013-01-02 13:53:00,5.0,3.0,-100.00,SSW,196,3.0,4.0,91,0.00,,,-99.99,,2013-01-02 20:53:00,
2013-01-02 14:02:00,5.0,3.0,-100.00,SSW,196,3.0,4.0,91,0.00,,,-99.99,,2013-01-02 21:02:00,
2013-01-02 14:12:00,5.0,3.0,-100.00,South,189,4.0,5.0,91,0.00,,,-99.99,,2013-01-02 21:12:00,
2013-01-02 14:22:00,6.0,4.0,-100.00,South,191,3.0,3.0,92,0.00,,,-99.99,,2013-01-02 21:22:00,
2013-01-02 14:32:00,6.0,4.0,-100.00,South,191,3.0,3.0,92,0.00,,,-99.99,,2013-01-02 21:32:00,
2013-01-02 14:43:00,8.0,6.0,-100.00,South,169,2.0,2.0,93,0.00,,,-99.99,,2013-01-02 21:43:00,
2013-01-02 14:53:00,8.0,6.0,-100.00,South,169,2.0,2.0,93,0.00,,,-99.99,,2013-01-02 21:53:00,
2013-01-02 15:02:00,8.0,6.0,-100.00,South,169,2.0,2.0,93,0.00,,,-99.99,,2013-01-02 22:02:00,
2013-01-02 15:12:00,9.0,8.0,-100.00,SSE,162,0.0,1.0,95,0.00,,,-99.99,,2013-01-02 22:12:00,
2013-01-02 15:22:00,9.0,8.0,-100.00,SSE,162,0.0,1.0,95,0.00,,,-99.99,,2013-01-02 22:22:00,
2013-01-02 15:32:00,9.0,8.0,-100.00,SSE,162,0.0,1.0,95,0.00,,,-99.99,,2013-01-02 22:32:00,
2013-01-02 15:42:00,9.0,7.0,-100.00,SSE,162,1.0,2.0,93,0.00,,,-99.99,,2013-01-02 22:42:00,
2013-01-02 15:53:00,9.0,7.0,-100.00,SSE,162,1.0,2.0,93,0.00,,,-99.99,,2013-01-02 22:53:00,
2013-01-02 16:02:00,9.0,7.0,-100.00,SSE,162,1.0,2.0,93,0.00,,,-99.99,,2013-01-02 23:02:00,
2013-01-02 16:12:00,8.0,6.0,-100.00,SSE,162,3.0,4.0,91,0.00,,,-99.99,,2013-01-02 23:12:00,
2013-01-02 16:22:00,6.0,4.0,-100.00,South,169,3.0,4.0,91,0.00,,,-99.99,,2013-01-02 23:22:00,
2013-01-02 16:33:00,6.0,4.0,-100.00,South,169,3.0,4.0,91,0.00,,,-99.99,,2013-01-02 23:33:00,
2013-01-02 16:42:00,6.0,4.0,-100.00,South,169,3.0,4.0,91,0.00,,,-99.99,,2013-01-02 23:42:00,
2013-01-02 16:52:00,5.0,3.0,-100.00,SSE,147,3.0,3.0,92,0.00,,,-99.99,,2013-01-02 23:52:00,
2013-01-02 17:02:00,5.0,3.0,-100.00,SSE,147,3.0,3.0,92,0.00,,,-99.99,,2013-01-03 00:02:00,
2013-01-02 17:12:00,5.0,3.0,-100.00,SSE,147,3.0,3.0,92,0.00,,,-99.99,,2013-01-03 00:12:00,
2013-01-02 17:22:00,4.0,1.0,-100.00,SE,141,2.0,3.0,90,0.00,,,-99.99,,2013-01-03 00:22:00,
2013-01-02 17:36:00,4.0,1.0,-100.00,SE,141,2.0,3.0,90,0.00,,,-99.99,,2013-01-03 00:36:00,
2013-01-02 17:42:00,2.0,-1.0,-100.00,SE,141,4.0,4.0,90,0.00,,,-99.99,,2013-01-03 00:42:00,
2013-01-02 17:52:00,2.0,0.0,-100.00,SE,138,3.0,4.0,90,0.00,,,-99.99,,2013-01-03 00:52:00,
2013-01-02 18:02:00,2.0,0.0,-100.00,SE,138,3.0,4.0,90,0.00,,,-99.99,,2013-01-03 01:02:00,
2013-01-02 18:12:00,2.0,0.0,-100.00,SE,138,3.0,4.0,90,0.00,,,-99.99,,2013-01-03 01:12:00,
2013-01-02 18:22:00,3.0,1.0,-100.00,ESE,120,4.0,5.0,91,0.00,,,-99.99,,2013-01-03 01:22:00,
2013-01-02 18:32:00,2.0,0.0,-100.00,ESE,119,4.0,5.0,91,0.00,,,-99.99,,2013-01-03 01:32:00,
2013-01-02 18:43:00,2.0,0.0,-100.00,ESE,119,4.0,5.0,91,0.00,,,-99.99,,2013-01-03 01:43:00,
2013-01-02 18:52:00,3.0,0.0,-100.00,ESE,121,3.0,4.0,90,0.00,,,-99.99,,2013-01-03 01:52:00,
2013-01-02 19:02:00,3.0,0.0,-100.00,ESE,121,3.0,4.0,90,0.00,,,-99.99,,2013-01-03 02:02:00,
2013-01-02 19:12:00,3.0,0.0,-100.00,ESE,121,3.0,4.0,90,0.00,,,-99.99,,2013-01-03 02:12:00,
2013-01-02 19:22:00,-3.0,-6.0,-100.00,ESE,119,4.0,5.0,87,0.00,,,-99.99,,2013-01-03 02:22:00,
2013-01-02 19:32:00,-3.0,-6.0,-100.00,ESE,119,4.0,5.0,87,0.00,,,-99.99,,2013-01-03 02:32:00,
2013-01-02 19:42:00,-3.0,-6.0,-100.00,ESE,119,4.0,5.0,87,0.00,,,-99.99,,2013-01-03 02:42:00,
2013-01-02 20:02:00,-5.0,-8.0,-100.00,SE,130,5.0,7.0,86,0.00,,,-99.99,,2013-01-03 03:02:00,
2013-01-02 20:12:00,-3.0,-6.0,-100.00,SE,134,5.0,6.0,87,0.00,,,-99.99,,2013-01-03 03:12:00,
2013-01-02 20:22:00,-3.0,-6.0,-100.00,SE,134,5.0,6.0,87,0.00,,,-99.99,,2013-01-03 03:22:00,
2013-01-02 20:46:00,-3.0,-6.0,-100.00,SE,134,6.0,7.0,88,0.00,,,-99.99,,2013-01-03 03:46:00,
2013-01-02 20:52:00,-3.0,-5.0,-100.00,SE,143,5.0,6.0,90,0.00,,,-99.99,,2013-01-03 03:52:00,
2013-01-02 21:02:00,-4.0,-7.0,-100.00,SE,128,5.0,6.0,87,0.00,,,-99.99,,2013-01-03 04:02:00,
2013-01-02 21:12:00,-4.0,-7.0,-100.00,SE,128,5.0,6.0,87,0.00,,,-99.99,,2013-01-03 04:12:00,
2013-01-02 21:22:00,-3.0,-6.0,-100.00,SE,136,5.0,7.0,87,0.00,,,-99.99,,2013-01-03 04:22:00,
2013-01-02 21:32:00,-3.0,-6.0,-100.00,SE,136,5.0,7.0,87,0.00,,,-99.99,,2013-01-03 04:32:00,
2013-01-02 21:42:00,-4.0,-7.0,-100.00,SE,136,6.0,7.0,87,0.00,,,-99.99,,2013-01-03 04:42:00,
2013-01-02 21:52:00,-5.0,-7.0,-100.00,SE,124,4.0,5.0,87,0.00,,,-99.99,,2013-01-03 04:52:00,
2013-01-02 22:03:00,-5.0,-7.0,-100.00,SE,124,4.0,5.0,87,0.00,,,-99.99,,2013-01-03 05:03:00,
2013-01-02 22:12:00,-5.0,-7.0,-100.00,ESE,114,4.0,6.0,88,0.00,,,-99.99,,2013-01-03 05:12:00,
2013-01-02 22:22:00,-5.0,-7.0,-100.00,ESE,114,4.0,6.0,88,0.00,,,-99.99,,2013-01-03 05:22:00,
2013-01-02 22:33:00,-5.0,-7.0,-100.00,ESE,114,4.0,6.0,88,0.00,,,-99.99,,2013-01-03 05:33:00,
2013-01-02 22:42:00,-5.0,-8.0,-100.00,ESE,117,4.0,4.0,86,0.00,,,-99.99,,2013-01-03 05:42:00,
2013-01-02 22:52:00,-5.0,-8.0,-100.00,ESE,113,4.0,5.0,87,0.00,,,-99.99,,2013-01-03 05:52:00,
2013-01-02 23:02:00,-5.0,-8.0,-100.00,ESE,113,4.0,5.0,87,0.00,,,-99.99,,2013-01-03 06:02:00,
2013-01-02 23:12:00,-6.0,-9.0,-100.00,ESE,123,6.0,6.0,85,0.00,,,-99.99,,2013-01-03 06:12:00,
2013-01-02 23:22:00,-5.0,-9.0,-100.00,East,83,1.0,2.0,86,0.00,,,-99.99,,2013-01-03 06:22:00,
2013-01-02 23:32:00,-5.0,-9.0,-100.00,East,83,1.0,2.0,86,0.00,,,-99.99,,2013-01-03 06:32:00,
2013-01-02 23:42:00,-5.0,-9.0,-100.00,East,83,1.0,2.0,86,0.00,,,-99.99,,2013-01-03 06:42:00,
2013-01-02 23:52:00,-7.0,-10.0,-100.00,ESE,120,5.0,6.0,85,0.00,,,-99.99,,2013-01-03 06:52:00,